sensor_id;sensor_type;location;lat;lon;timestamp;P1;durP1;ratioP1;P2;durP2;ratioP2
44384;SDS011;30101;32.778;34.994;2022-11-24T00:02:49;18.33;;;6.53;;
44384;SDS011;30101;32.778;34.994;2022-11-24T00:07:54;12.68;;;5.60;;
44384;SDS011;30101;32.778;34.994;2022-11-24T00:13:00;19.77;;;6.85;;
44384;SDS011;30101;32.778;34.994;2022-11-24T00:18:04;19.83;;;6.55;;
44384;SDS011;30101;32.778;34.994;2022-11-24T00:23:08;29.10;;;6.72;;
44384;SDS011;30101;32.778;34.994;2022-11-24T00:28:12;17.02;;;6.53;;
44384;SDS011;30101;32.778;34.994;2022-11-24T00:33:16;19.45;;;6.00;;
44384;SDS011;30101;32.778;34.994;2022-11-24T00:38:19;20.67;;;6.88;;
44384;SDS011;30101;32.778;34.994;2022-11-24T00:43:23;20.55;;;7.18;;
44384;SDS011;30101;32.778;34.994;2022-11-24T00:48:26;17.38;;;6.57;;
44384;SDS011;30101;32.778;34.994;2022-11-24T00:53:30;21.50;;;7.25;;
44384;SDS011;30101;32.778;34.994;2022-11-24T00:58:36;17.92;;;5.93;;
44384;SDS011;30101;32.778;34.994;2022-11-24T01:03:41;18.95;;;6.63;;
44384;SDS011;30101;32.778;34.994;2022-11-24T01:08:44;13.30;;;6.00;;
44384;SDS011;30101;32.778;34.994;2022-11-24T01:13:50;18.52;;;6.93;;
44384;SDS011;30101;32.778;34.994;2022-11-24T01:18:59;15.85;;;5.95;;
44384;SDS011;30101;32.778;34.994;2022-11-24T01:24:03;16.63;;;5.65;;
44384;SDS011;30101;32.778;34.994;2022-11-24T01:29:08;31.25;;;7.47;;
44384;SDS011;30101;32.778;34.994;2022-11-24T01:34:13;19.55;;;6.35;;
44384;SDS011;30101;32.778;34.994;2022-11-24T01:39:16;17.05;;;6.30;;
44384;SDS011;30101;32.778;34.994;2022-11-24T01:54:44;23.17;;;7.25;;
44384;SDS011;30101;32.778;34.994;2022-11-24T01:59:56;12.65;;;6.30;;
44384;SDS011;30101;32.778;34.994;2022-11-24T02:05:20;17.13;;;6.43;;
44384;SDS011;30101;32.778;34.994;2022-11-24T02:10:30;19.30;;;6.22;;
44384;SDS011;30101;32.778;34.994;2022-11-24T02:15:33;15.20;;;6.53;;
44384;SDS011;30101;32.778;34.994;2022-11-24T02:20:37;21.05;;;6.88;;
44384;SDS011;30101;32.778;34.994;2022-11-24T02:31:00;22.15;;;7.07;;
44384;SDS011;30101;32.778;34.994;2022-11-24T02:36:04;22.45;;;6.82;;
44384;SDS011;30101;32.778;34.994;2022-11-24T02:41:09;20.08;;;7.10;;
44384;SDS011;30101;32.778;34.994;2022-11-24T02:46:15;20.63;;;6.63;;
44384;SDS011;30101;32.778;34.994;2022-11-24T02:51:19;28.83;;;7.30;;
44384;SDS011;30101;32.778;34.994;2022-11-24T02:56:22;30.52;;;7.82;;
44384;SDS011;30101;32.778;34.994;2022-11-24T03:01:30;19.00;;;7.00;;
44384;SDS011;30101;32.778;34.994;2022-11-24T03:06:34;26.90;;;7.03;;
44384;SDS011;30101;32.778;34.994;2022-11-24T03:11:38;32.55;;;8.98;;
44384;SDS011;30101;32.778;34.994;2022-11-24T03:16:41;20.48;;;6.68;;
44384;SDS011;30101;32.778;34.994;2022-11-24T03:21:45;17.27;;;7.00;;
44384;SDS011;30101;32.778;34.994;2022-11-24T03:26:48;18.05;;;6.78;;
44384;SDS011;30101;32.778;34.994;2022-11-24T03:31:52;40.22;;;7.65;;
44384;SDS011;30101;32.778;34.994;2022-11-24T03:36:59;31.80;;;8.35;;
44384;SDS011;30101;32.778;34.994;2022-11-24T03:42:05;18.70;;;7.40;;
44384;SDS011;30101;32.778;34.994;2022-11-24T03:47:09;31.63;;;7.93;;
44384;SDS011;30101;32.778;34.994;2022-11-24T03:52:13;17.42;;;6.68;;
44384;SDS011;30101;32.778;34.994;2022-11-24T03:57:17;25.00;;;6.93;;
44384;SDS011;30101;32.778;34.994;2022-11-24T04:02:20;21.33;;;6.50;;
44384;SDS011;30101;32.778;34.994;2022-11-24T04:07:24;15.93;;;7.05;;
44384;SDS011;30101;32.778;34.994;2022-11-24T04:12:27;20.23;;;6.50;;
44384;SDS011;30101;32.778;34.994;2022-11-24T04:17:30;24.15;;;7.65;;
44384;SDS011;30101;32.778;34.994;2022-11-24T04:22:34;30.75;;;7.03;;
44384;SDS011;30101;32.778;34.994;2022-11-24T04:27:38;25.30;;;7.35;;
44384;SDS011;30101;32.778;34.994;2022-11-24T04:32:42;17.88;;;7.53;;
44384;SDS011;30101;32.778;34.994;2022-11-24T04:37:48;17.88;;;6.80;;
44384;SDS011;30101;32.778;34.994;2022-11-24T04:42:52;33.88;;;9.32;;
44384;SDS011;30101;32.778;34.994;2022-11-24T04:47:56;29.67;;;8.48;;
44384;SDS011;30101;32.778;34.994;2022-11-24T04:53:01;35.20;;;9.77;;
44384;SDS011;30101;32.778;34.994;2022-11-24T04:58:11;25.90;;;9.13;;
44384;SDS011;30101;32.778;34.994;2022-11-24T05:03:16;29.55;;;8.88;;
44384;SDS011;30101;32.778;34.994;2022-11-24T05:08:19;29.70;;;9.25;;
44384;SDS011;30101;32.778;34.994;2022-11-24T05:13:23;26.38;;;9.13;;
44384;SDS011;30101;32.778;34.994;2022-11-24T05:18:26;30.23;;;9.73;;
44384;SDS011;30101;32.778;34.994;2022-11-24T05:23:30;27.13;;;10.45;;
44384;SDS011;30101;32.778;34.994;2022-11-24T05:28:33;32.67;;;9.43;;
44384;SDS011;30101;32.778;34.994;2022-11-24T05:33:38;31.15;;;10.77;;
44384;SDS011;30101;32.778;34.994;2022-11-24T05:38:41;30.27;;;11.23;;
44384;SDS011;30101;32.778;34.994;2022-11-24T05:43:44;40.60;;;12.00;;
44384;SDS011;30101;32.778;34.994;2022-11-24T05:48:49;30.27;;;11.23;;
44384;SDS011;30101;32.778;34.994;2022-11-24T05:53:53;41.40;;;11.77;;
44384;SDS011;30101;32.778;34.994;2022-11-24T05:58:57;40.80;;;12.55;;
44384;SDS011;30101;32.778;34.994;2022-11-24T06:04:01;47.63;;;14.23;;
44384;SDS011;30101;32.778;34.994;2022-11-24T06:09:04;34.95;;;12.95;;
44384;SDS011;30101;32.778;34.994;2022-11-24T06:14:08;31.98;;;11.48;;
44384;SDS011;30101;32.778;34.994;2022-11-24T06:19:13;27.08;;;10.93;;
44384;SDS011;30101;32.778;34.994;2022-11-24T06:24:16;34.15;;;11.73;;
44384;SDS011;30101;32.778;34.994;2022-11-24T06:29:20;39.30;;;11.13;;
44384;SDS011;30101;32.778;34.994;2022-11-24T06:34:23;26.65;;;10.98;;
44384;SDS011;30101;32.778;34.994;2022-11-24T06:39:27;34.35;;;11.15;;
44384;SDS011;30101;32.778;34.994;2022-11-24T06:44:34;26.95;;;11.25;;
44384;SDS011;30101;32.778;34.994;2022-11-24T06:49:39;26.90;;;11.43;;
44384;SDS011;30101;32.778;34.994;2022-11-24T06:54:42;43.15;;;13.32;;
44384;SDS011;30101;32.778;34.994;2022-11-24T06:59:46;36.38;;;12.48;;
44384;SDS011;30101;32.778;34.994;2022-11-24T07:04:53;46.65;;;13.60;;
44384;SDS011;30101;32.778;34.994;2022-11-24T07:09:56;37.28;;;13.45;;
44384;SDS011;30101;32.778;34.994;2022-11-24T07:15:00;31.77;;;11.90;;
44384;SDS011;30101;32.778;34.994;2022-11-24T07:20:05;39.92;;;13.85;;
44384;SDS011;30101;32.778;34.994;2022-11-24T07:25:09;29.75;;;12.55;;
44384;SDS011;30101;32.778;34.994;2022-11-24T07:30:13;36.75;;;12.70;;
44384;SDS011;30101;32.778;34.994;2022-11-24T07:35:17;30.73;;;12.98;;
44384;SDS011;30101;32.778;34.994;2022-11-24T07:40:20;36.75;;;12.65;;
44384;SDS011;30101;32.778;34.994;2022-11-24T07:45:24;46.35;;;13.25;;
44384;SDS011;30101;32.778;34.994;2022-11-24T07:50:28;42.40;;;13.75;;
44384;SDS011;30101;32.778;34.994;2022-11-24T07:55:31;37.45;;;14.55;;
44384;SDS011;30101;32.778;34.994;2022-11-24T08:00:35;47.33;;;14.70;;
44384;SDS011;30101;32.778;34.994;2022-11-24T08:05:38;40.58;;;14.60;;
44384;SDS011;30101;32.778;34.994;2022-11-24T08:11:05;42.92;;;13.43;;
44384;SDS011;30101;32.778;34.994;2022-11-24T08:16:14;44.25;;;15.95;;
44384;SDS011;30101;32.778;34.994;2022-11-24T08:21:20;35.28;;;13.73;;
44384;SDS011;30101;32.778;34.994;2022-11-24T08:26:29;42.80;;;13.43;;
44384;SDS011;30101;32.778;34.994;2022-11-24T08:31:33;34.53;;;12.68;;
44384;SDS011;30101;32.778;34.994;2022-11-24T08:36:37;26.83;;;12.07;;
44384;SDS011;30101;32.778;34.994;2022-11-24T08:41:41;30.25;;;10.52;;
44384;SDS011;30101;32.778;34.994;2022-11-24T08:46:45;30.70;;;10.95;;
44384;SDS011;30101;32.778;34.994;2022-11-24T08:51:48;16.75;;;7.15;;
44384;SDS011;30101;32.778;34.994;2022-11-24T08:56:51;18.35;;;7.15;;
44384;SDS011;30101;32.778;34.994;2022-11-24T09:01:55;15.75;;;4.85;;
44384;SDS011;30101;32.778;34.994;2022-11-24T09:06:59;16.98;;;5.03;;
44384;SDS011;30101;32.778;34.994;2022-11-24T09:12:02;14.13;;;4.22;;
44384;SDS011;30101;32.778;34.994;2022-11-24T09:17:10;15.45;;;5.20;;
44384;SDS011;30101;32.778;34.994;2022-11-24T09:22:15;16.33;;;4.35;;
44384;SDS011;30101;32.778;34.994;2022-11-24T09:27:18;15.25;;;3.85;;
44384;SDS011;30101;32.778;34.994;2022-11-24T09:32:22;8.65;;;3.10;;
44384;SDS011;30101;32.778;34.994;2022-11-24T09:37:25;11.63;;;3.20;;
44384;SDS011;30101;32.778;34.994;2022-11-24T09:48:10;6.82;;;2.08;;
44384;SDS011;30101;32.778;34.994;2022-11-24T09:58:59;9.20;;;2.28;;
44384;SDS011;30101;32.778;34.994;2022-11-24T10:04:15;16.02;;;2.90;;
44384;SDS011;30101;32.778;34.994;2022-11-24T10:31:35;16.50;;;4.82;;
44384;SDS011;30101;32.778;34.994;2022-11-24T10:47:35;10.13;;;3.33;;
44384;SDS011;30101;32.778;34.994;2022-11-24T10:52:42;21.35;;;4.43;;
44384;SDS011;30101;32.778;34.994;2022-11-24T10:57:49;12.85;;;4.10;;
44384;SDS011;30101;32.778;34.994;2022-11-24T11:03:43;15.45;;;4.00;;
44384;SDS011;30101;32.778;34.994;2022-11-24T11:13:29;7.78;;;3.22;;
44384;SDS011;30101;32.778;34.994;2022-11-24T11:18:33;15.65;;;4.20;;
44384;SDS011;30101;32.778;34.994;2022-11-24T11:23:38;6.68;;;1.85;;
44384;SDS011;30101;32.778;34.994;2022-11-24T11:28:54;5.25;;;1.55;;
44384;SDS011;30101;32.778;34.994;2022-11-24T11:34:21;12.43;;;1.70;;
44384;SDS011;30101;32.778;34.994;2022-11-24T11:39:33;11.77;;;1.52;;
44384;SDS011;30101;32.778;34.994;2022-11-24T11:44:44;6.57;;;1.40;;
44384;SDS011;30101;32.778;34.994;2022-11-24T11:49:54;8.48;;;1.67;;
44384;SDS011;30101;32.778;34.994;2022-11-24T12:06:33;8.63;;;1.27;;
44384;SDS011;30101;32.778;34.994;2022-11-24T12:22:45;6.70;;;1.47;;
44384;SDS011;30101;32.778;34.994;2022-11-24T12:55:15;16.08;;;2.67;;
44384;SDS011;30101;32.778;34.994;2022-11-24T13:10:45;9.02;;;2.50;;
44384;SDS011;30101;32.778;34.994;2022-11-24T13:26:50;18.63;;;3.20;;
44384;SDS011;30101;32.778;34.994;2022-11-24T13:48:00;8.85;;;2.25;;
44384;SDS011;30101;32.778;34.994;2022-11-24T13:53:08;7.72;;;1.42;;
44384;SDS011;30101;32.778;34.994;2022-11-24T14:03:34;7.93;;;1.70;;
44384;SDS011;30101;32.778;34.994;2022-11-24T14:09:27;7.97;;;2.20;;
44384;SDS011;30101;32.778;34.994;2022-11-24T14:14:37;12.20;;;1.95;;
44384;SDS011;30101;32.778;34.994;2022-11-24T14:19:41;9.10;;;1.90;;
44384;SDS011;30101;32.778;34.994;2022-11-24T14:24:51;11.57;;;1.60;;
44384;SDS011;30101;32.778;34.994;2022-11-24T14:35:25;17.08;;;1.92;;
44384;SDS011;30101;32.778;34.994;2022-11-24T14:45:47;4.72;;;2.17;;
44384;SDS011;30101;32.778;34.994;2022-11-24T14:56:28;12.80;;;2.35;;
44384;SDS011;30101;32.778;34.994;2022-11-24T15:01:34;9.48;;;2.40;;
44384;SDS011;30101;32.778;34.994;2022-11-24T15:06:39;7.50;;;2.00;;
44384;SDS011;30101;32.778;34.994;2022-11-24T15:11:44;8.93;;;1.88;;
44384;SDS011;30101;32.778;34.994;2022-11-24T15:16:47;8.57;;;1.80;;
44384;SDS011;30101;32.778;34.994;2022-11-24T15:21:51;8.40;;;2.10;;
44384;SDS011;30101;32.778;34.994;2022-11-24T15:26:58;10.40;;;2.10;;
44384;SDS011;30101;32.778;34.994;2022-11-24T15:32:10;7.72;;;2.33;;
44384;SDS011;30101;32.778;34.994;2022-11-24T15:37:16;10.52;;;2.03;;
44384;SDS011;30101;32.778;34.994;2022-11-24T15:42:20;8.57;;;2.00;;
44384;SDS011;30101;32.778;34.994;2022-11-24T15:47:23;9.70;;;2.92;;
44384;SDS011;30101;32.778;34.994;2022-11-24T15:52:28;7.65;;;1.95;;
44384;SDS011;30101;32.778;34.994;2022-11-24T15:57:33;5.53;;;1.63;;
44384;SDS011;30101;32.778;34.994;2022-11-24T16:02:36;9.45;;;2.60;;
44384;SDS011;30101;32.778;34.994;2022-11-24T16:07:40;14.07;;;2.15;;
44384;SDS011;30101;32.778;34.994;2022-11-24T16:12:43;5.82;;;1.58;;
44384;SDS011;30101;32.778;34.994;2022-11-24T16:17:47;9.68;;;2.47;;
44384;SDS011;30101;32.778;34.994;2022-11-24T16:22:50;9.23;;;2.15;;
44384;SDS011;30101;32.778;34.994;2022-11-24T16:27:53;10.93;;;2.40;;
44384;SDS011;30101;32.778;34.994;2022-11-24T16:33:03;6.05;;;1.85;;
44384;SDS011;30101;32.778;34.994;2022-11-24T16:38:13;9.68;;;2.13;;
44384;SDS011;30101;32.778;34.994;2022-11-24T16:43:18;15.13;;;2.22;;
44384;SDS011;30101;32.778;34.994;2022-11-24T16:48:22;7.85;;;2.05;;
44384;SDS011;30101;32.778;34.994;2022-11-24T16:53:26;13.73;;;3.00;;
44384;SDS011;30101;32.778;34.994;2022-11-24T16:58:29;11.43;;;3.28;;
44384;SDS011;30101;32.778;34.994;2022-11-24T17:03:33;11.52;;;3.00;;
44384;SDS011;30101;32.778;34.994;2022-11-24T17:08:38;10.80;;;2.72;;
44384;SDS011;30101;32.778;34.994;2022-11-24T17:13:43;6.55;;;2.25;;
44384;SDS011;30101;32.778;34.994;2022-11-24T17:18:49;17.45;;;2.92;;
44384;SDS011;30101;32.778;34.994;2022-11-24T17:23:54;11.93;;;2.22;;
44384;SDS011;30101;32.778;34.994;2022-11-24T17:29:01;15.77;;;2.53;;
44384;SDS011;30101;32.778;34.994;2022-11-24T17:34:08;15.07;;;3.22;;
44384;SDS011;30101;32.778;34.994;2022-11-24T17:39:15;9.30;;;2.40;;
44384;SDS011;30101;32.778;34.994;2022-11-24T17:44:25;21.70;;;2.90;;
44384;SDS011;30101;32.778;34.994;2022-11-24T17:49:32;14.52;;;2.63;;
44384;SDS011;30101;32.778;34.994;2022-11-24T17:54:35;11.75;;;2.40;;
44384;SDS011;30101;32.778;34.994;2022-11-24T17:59:48;13.52;;;2.65;;
44384;SDS011;30101;32.778;34.994;2022-11-24T18:04:53;10.25;;;2.78;;
44384;SDS011;30101;32.778;34.994;2022-11-24T18:09:56;12.52;;;2.53;;
44384;SDS011;30101;32.778;34.994;2022-11-24T18:15:00;12.73;;;3.22;;
44384;SDS011;30101;32.778;34.994;2022-11-24T18:20:07;12.63;;;3.00;;
44384;SDS011;30101;32.778;34.994;2022-11-24T18:25:11;10.30;;;2.20;;
44384;SDS011;30101;32.778;34.994;2022-11-24T18:30:16;11.18;;;3.30;;
44384;SDS011;30101;32.778;34.994;2022-11-24T18:35:21;14.18;;;2.80;;
44384;SDS011;30101;32.778;34.994;2022-11-24T18:40:26;14.52;;;4.38;;
44384;SDS011;30101;32.778;34.994;2022-11-24T18:45:30;26.02;;;3.13;;
44384;SDS011;30101;32.778;34.994;2022-11-24T18:50:34;15.55;;;2.70;;
44384;SDS011;30101;32.778;34.994;2022-11-24T18:55:37;11.10;;;2.72;;
44384;SDS011;30101;32.778;34.994;2022-11-24T19:00:41;23.52;;;3.90;;
44384;SDS011;30101;32.778;34.994;2022-11-24T19:05:44;30.98;;;3.80;;
44384;SDS011;30101;32.778;34.994;2022-11-24T19:10:48;20.25;;;3.65;;
44384;SDS011;30101;32.778;34.994;2022-11-24T19:15:51;15.60;;;2.85;;
44384;SDS011;30101;32.778;34.994;2022-11-24T19:20:55;17.85;;;3.25;;
44384;SDS011;30101;32.778;34.994;2022-11-24T19:26:01;17.45;;;3.55;;
44384;SDS011;30101;32.778;34.994;2022-11-24T19:31:07;11.05;;;2.80;;
44384;SDS011;30101;32.778;34.994;2022-11-24T19:36:17;15.55;;;2.60;;
44384;SDS011;30101;32.778;34.994;2022-11-24T19:41:23;15.93;;;2.80;;
44384;SDS011;30101;32.778;34.994;2022-11-24T19:46:28;18.00;;;4.75;;
44384;SDS011;30101;32.778;34.994;2022-11-24T19:51:33;17.17;;;3.20;;
44384;SDS011;30101;32.778;34.994;2022-11-24T19:56:39;23.20;;;3.20;;
44384;SDS011;30101;32.778;34.994;2022-11-24T20:01:44;16.30;;;3.00;;
44384;SDS011;30101;32.778;34.994;2022-11-24T20:06:48;9.93;;;2.22;;
44384;SDS011;30101;32.778;34.994;2022-11-24T20:11:51;14.32;;;2.70;;
44384;SDS011;30101;32.778;34.994;2022-11-24T20:16:55;27.70;;;3.75;;
44384;SDS011;30101;32.778;34.994;2022-11-24T20:21:59;26.48;;;4.90;;
44384;SDS011;30101;32.778;34.994;2022-11-24T20:27:02;18.92;;;3.80;;
44384;SDS011;30101;32.778;34.994;2022-11-24T20:32:06;16.45;;;3.63;;
44384;SDS011;30101;32.778;34.994;2022-11-24T20:37:09;27.65;;;3.15;;
44384;SDS011;30101;32.778;34.994;2022-11-24T20:42:14;16.70;;;2.92;;
44384;SDS011;30101;32.778;34.994;2022-11-24T20:47:17;20.52;;;3.47;;
44384;SDS011;30101;32.778;34.994;2022-11-24T20:52:21;15.75;;;3.00;;
44384;SDS011;30101;32.778;34.994;2022-11-24T20:57:25;21.02;;;2.90;;
44384;SDS011;30101;32.778;34.994;2022-11-24T21:02:29;17.52;;;3.08;;
44384;SDS011;30101;32.778;34.994;2022-11-24T21:07:36;14.40;;;3.15;;
44384;SDS011;30101;32.778;34.994;2022-11-24T21:12:40;14.18;;;2.85;;
44384;SDS011;30101;32.778;34.994;2022-11-24T21:17:43;16.92;;;3.33;;
44384;SDS011;30101;32.778;34.994;2022-11-24T21:27:51;25.10;;;3.42;;
44384;SDS011;30101;32.778;34.994;2022-11-24T21:32:55;25.55;;;3.97;;
44384;SDS011;30101;32.778;34.994;2022-11-24T21:38:02;20.33;;;3.50;;
44384;SDS011;30101;32.778;34.994;2022-11-24T21:43:06;27.98;;;3.33;;
44384;SDS011;30101;32.778;34.994;2022-11-24T21:48:09;26.00;;;3.47;;
44384;SDS011;30101;32.778;34.994;2022-11-24T22:03:21;16.83;;;3.20;;
44384;SDS011;30101;32.778;34.994;2022-11-24T22:13:29;20.35;;;4.40;;
44384;SDS011;30101;32.778;34.994;2022-11-24T22:18:33;24.40;;;4.10;;
44384;SDS011;30101;32.778;34.994;2022-11-24T22:23:38;20.23;;;4.22;;
44384;SDS011;30101;32.778;34.994;2022-11-24T22:28:43;24.80;;;4.85;;
44384;SDS011;30101;32.778;34.994;2022-11-24T22:33:47;30.05;;;4.47;;
44384;SDS011;30101;32.778;34.994;2022-11-24T22:38:54;18.48;;;4.30;;
44384;SDS011;30101;32.778;34.994;2022-11-24T22:44:03;22.92;;;4.10;;
44384;SDS011;30101;32.778;34.994;2022-11-24T22:49:08;28.13;;;4.25;;
44384;SDS011;30101;32.778;34.994;2022-11-24T22:54:11;24.55;;;4.65;;
44384;SDS011;30101;32.778;34.994;2022-11-24T22:59:15;35.25;;;4.38;;
44384;SDS011;30101;32.778;34.994;2022-11-24T23:04:18;40.97;;;5.85;;
44384;SDS011;30101;32.778;34.994;2022-11-24T23:09:23;27.65;;;4.38;;
44384;SDS011;30101;32.778;34.994;2022-11-24T23:14:29;33.33;;;5.57;;
44384;SDS011;30101;32.778;34.994;2022-11-24T23:19:35;26.73;;;4.90;;
44384;SDS011;30101;32.778;34.994;2022-11-24T23:24:38;31.52;;;5.22;;
44384;SDS011;30101;32.778;34.994;2022-11-24T23:29:42;27.15;;;4.70;;
44384;SDS011;30101;32.778;34.994;2022-11-24T23:34:45;26.27;;;4.82;;
44384;SDS011;30101;32.778;34.994;2022-11-24T23:39:49;31.30;;;4.68;;
44384;SDS011;30101;32.778;34.994;2022-11-24T23:55:01;25.58;;;4.53;;
